Kenai Municipal Airport Kenai US
ICAO: PAEN
IATA:
Category: Medium
Scheduled Services:

Elevation: 99 ft
TransAlt. 18000 ft.

Airport Communications:
ATIS:120.3
ANCHORAGE CNTR:125.7
CTAF:121.3
RDO:122.65
GND:121.9
TWEB:117.6
TWR:121.3

PAEN Zoom In..

Runways:

(A) RW 01L length 7830 ft width 150 ft
---- / hdg 12

(B) RW 01R length 2000 ft width 60 ft
---- / hdg 12

(C) RW 19L length 2000 ft width 60 ft
---- / hdg 192

(D) RW 19R length 7830 ft width 150 ft
ILS 108.90 / hdg 192

Location; PAEN
Day. 24 / Time. 01.53 Zulu
* Altimeter: 29.85
* Temperature: -09° c. -15.8°f.
* Wind from: 030° Speed 05 kn.
Dewpoint: -10° c.
Visibility: 4 Statute Miles.
Clouds: Broken 1100 ft.
Clouds: Broken 4500 ft.
Clouds: Overcast 6000 ft.
Conditions: Light Snow.Conditions: Mist.

PAEN 240153Z 03005KT 4SM -SN BR BKN011 BKN045 OVC060 M09/M10 A2985 RMK AO2 SLP112 P0000 T10891100


Wind From 030°
Speed 05 kn.

YouTube Music Video
 
jpsmedia.com for Web Design  worldairports.se 2018   terms of use